Time;durP1;ratioP1;P1;durP2;ratioP2;P2;SDS_P1;SDS_P2;PMS_P1;PMS_P2;Temp;Humidity;BMP_temperature;BMP_pressure;BME280_temperature;BME280_humidity;BME280_pressure;Samples;Min_cycle;Max_cycle;Signal;HPM_P1;HPM_P2
2021/11/27 00:00:06;;;;;;;0.82;0.73;;;;;;;;;;5033698;28;20202;-81
2021/11/27 00:02:32;;;;;;;0.95;0.70;;;;;;;;;;5034403;28;20525;-81
2021/11/27 00:04:58;;;;;;;2.00;0.93;;;;;;;;;;5033871;28;20173;-82
2021/11/27 00:07:24;;;;;;;0.90;0.90;;;;;;;;;;5034018;28;20416;-81
2021/11/27 00:09:50;;;;;;;1.10;0.75;;;;;;;;;;5033622;28;20177;-81
2021/11/27 00:12:16;;;;;;;2.20;0.80;;;;;;;;;;5033849;28;20211;-81
2021/11/27 00:14:42;;;;;;;1.27;0.70;;;;;;;;;;5033853;28;20320;-81
2021/11/27 00:17:08;;;;;;;1.10;0.73;;;;;;;;;;5033457;28;20197;-81
2021/11/27 00:19:37;;;;;;;0.75;0.70;;;;;;;;;;5033611;28;20292;-81
2021/11/27 00:22:03;;;;;;;0.98;0.90;;;;;;;;;;5032594;28;20182;-81
2021/11/27 00:24:29;;;;;;;1.00;0.70;;;;;;;;;;5033587;28;20636;-81
2021/11/27 00:26:55;;;;;;;1.00;0.80;;;;;;;;;;5033560;28;20220;-81
2021/11/27 00:29:22;;;;;;;0.70;0.57;;;;;;;;;;5033420;28;20844;-81
2021/11/27 00:31:49;;;;;;;1.17;0.60;;;;;;;;;;5033413;28;20500;-78
2021/11/27 00:34:15;;;;;;;1.35;0.93;;;;;;;;;;5033519;28;20170;-80
2021/11/27 00:36:42;;;;;;;0.93;0.65;;;;;;;;;;5032039;28;20192;-80
2021/11/27 00:39:08;;;;;;;0.88;0.75;;;;;;;;;;5033255;28;20314;-79
2021/11/27 00:41:35;;;;;;;0.75;0.57;;;;;;;;;;5033020;28;20194;-80
2021/11/27 00:44:01;;;;;;;1.27;0.80;;;;;;;;;;5031929;28;20185;-80
2021/11/27 00:46:27;;;;;;;1.20;0.65;;;;;;;;;;5033280;28;20205;-80
2021/11/27 00:48:53;;;;;;;0.85;0.60;;;;;;;;;;5033076;28;20174;-80
2021/11/27 00:51:21;;;;;;;1.35;0.70;;;;;;;;;;5032687;28;20197;-79
2021/11/27 00:53:48;;;;;;;0.60;0.50;;;;;;;;;;5033371;28;20179;-79
2021/11/27 00:56:15;;;;;;;1.08;0.95;;;;;;;;;;5033221;28;20186;-80
2021/11/27 00:58:41;;;;;;;0.68;0.60;;;;;;;;;;5033178;28;20186;-80
2021/11/27 01:01:09;;;;;;;0.70;0.60;;;;;;;;;;5031413;28;20270;-80
2021/11/27 01:03:37;;;;;;;0.70;0.50;;;;;;;;;;5031775;28;20585;-78
2021/11/27 01:06:05;;;;;;;0.65;0.50;;;;;;;;;;5033095;28;20221;-79
2021/11/27 01:08:31;;;;;;;0.73;0.52;;;;;;;;;;5033236;28;20170;-78
2021/11/27 01:10:59;;;;;;;0.70;0.60;;;;;;;;;;5032629;28;20197;-79
2021/11/27 01:13:25;;;;;;;1.00;0.60;;;;;;;;;;5032952;28;20206;-80
2021/11/27 01:15:51;;;;;;;0.60;0.50;;;;;;;;;;5033121;28;20663;-78
2021/11/27 01:18:18;;;;;;;0.95;0.60;;;;;;;;;;5032975;28;20276;-80
2021/11/27 01:20:50;;;;;;;0.60;0.50;;;;;;;;;;5032541;28;20193;-80
2021/11/27 01:23:16;;;;;;;0.70;0.50;;;;;;;;;;5032843;28;20174;-78
2021/11/27 01:25:44;;;;;;;0.88;0.70;;;;;;;;;;5032851;28;20335;-80
2021/11/27 01:28:11;;;;;;;1.00;0.60;;;;;;;;;;5034613;28;20192;-79
2021/11/27 01:30:54;;;;;;;0.70;0.50;;;;;;;;;;5035233;28;20272;-81
2021/11/27 01:33:20;;;;;;;0.98;0.60;;;;;;;;;;5036828;28;20268;-80
2021/11/27 01:35:47;;;;;;;0.70;0.55;;;;;;;;;;5035461;28;20212;-80
2021/11/27 01:38:13;;;;;;;2.15;0.60;;;;;;;;;;5036729;28;20580;-78
2021/11/27 01:40:39;;;;;;;0.70;0.50;;;;;;;;;;5035089;28;20259;-80
2021/11/27 01:43:05;;;;;;;0.63;0.57;;;;;;;;;;5035439;28;20686;-79
2021/11/27 01:45:32;;;;;;;0.60;0.50;;;;;;;;;;5036319;28;20257;-79
2021/11/27 01:48:09;;;;;;;1.25;0.70;;;;;;;;;;5036474;28;20279;-80
2021/11/27 01:50:37;;;;;;;0.70;0.60;;;;;;;;;;5036215;28;20215;-80
2021/11/27 01:53:03;;;;;;;0.70;0.50;;;;;;;;;;5036381;28;20171;-79
2021/11/27 01:55:30;;;;;;;0.75;0.60;;;;;;;;;;5018625;28;20240;-80
2021/11/27 01:57:56;;;;;;;0.70;0.68;;;;;;;;;;5036428;28;20183;-78
2021/11/27 02:00:24;;;;;;;0.70;0.60;;;;;;;;;;5036070;28;20289;-79
2021/11/27 02:02:51;;;;;;;0.70;0.60;;;;;;;;;;5036271;28;20270;-79
2021/11/27 02:05:18;;;;;;;0.70;0.60;;;;;;;;;;5036207;28;20197;-79
2021/11/27 02:07:44;;;;;;;0.60;0.50;;;;;;;;;;5036214;28;20174;-80
2021/11/27 02:10:12;;;;;;;0.70;0.60;;;;;;;;;;5035888;28;20191;-79
2021/11/27 02:12:39;;;;;;;1.02;0.65;;;;;;;;;;5036131;28;20300;-78
2021/11/27 02:15:06;;;;;;;0.80;0.70;;;;;;;;;;5036186;28;20181;-79
2021/11/27 02:17:32;;;;;;;0.98;0.65;;;;;;;;;;5035847;28;20182;-79
2021/11/27 02:19:58;;;;;;;0.85;0.70;;;;;;;;;;5035518;28;20544;-79
2021/11/27 02:22:24;;;;;;;1.10;0.73;;;;;;;;;;5036136;28;20177;-80
2021/11/27 02:24:50;;;;;;;0.70;0.70;;;;;;;;;;5035808;28;20267;-80
2021/11/27 02:27:17;;;;;;;0.80;0.60;;;;;;;;;;5035849;28;20210;-79
2021/11/27 02:29:43;;;;;;;0.68;0.60;;;;;;;;;;5034134;28;20182;-80
2021/11/27 02:32:09;;;;;;;2.25;0.80;;;;;;;;;;5035771;28;20174;-78
2021/11/27 02:34:35;;;;;;;1.10;0.90;;;;;;;;;;5035390;28;20173;-78
2021/11/27 02:37:03;;;;;;;1.02;0.93;;;;;;;;;;5035575;28;20193;-78
2021/11/27 02:39:30;;;;;;;1.10;1.00;;;;;;;;;;5035117;28;20205;-78
2021/11/27 02:41:56;;;;;;;1.40;1.30;;;;;;;;;;5035339;28;20202;-79
2021/11/27 02:44:23;;;;;;;2.55;1.30;;;;;;;;;;5035451;28;20181;-79
2021/11/27 02:46:49;;;;;;;1.77;1.67;;;;;;;;;;5035326;28;20205;-79
2021/11/27 02:49:15;;;;;;;2.97;2.63;;;;;;;;;;5035020;28;20181;-80
2021/11/27 02:51:41;;;;;;;2.95;2.70;;;;;;;;;;5035272;28;20529;-80
2021/11/27 02:54:08;;;;;;;2.17;1.98;;;;;;;;;;5035155;28;20261;-80
2021/11/27 02:56:34;;;;;;;3.72;2.20;;;;;;;;;;5035320;28;20174;-79
2021/11/27 02:59:13;;;;;;;3.28;2.97;;;;;;;;;;5035200;28;20180;-80
2021/11/27 03:01:40;;;;;;;3.25;2.95;;;;;;;;;;5035192;28;20295;-79
2021/11/27 03:04:06;;;;;;;4.38;3.63;;;;;;;;;;5035001;28;20225;-79
2021/11/27 03:06:33;;;;;;;3.30;3.00;;;;;;;;;;5033765;28;20237;-80
2021/11/27 03:09:00;;;;;;;5.32;3.72;;;;;;;;;;5034997;28;20177;-81
2021/11/27 03:11:26;;;;;;;3.92;3.63;;;;;;;;;;5034721;28;20263;-79
2021/11/27 03:13:52;;;;;;;3.25;2.95;;;;;;;;;;5035120;28;20511;-79
2021/11/27 03:16:18;;;;;;;3.15;2.83;;;;;;;;;;5034734;28;20191;-80
2021/11/27 03:18:45;;;;;;;3.60;3.28;;;;;;;;;;5034965;28;20193;-78
2021/11/27 03:21:11;;;;;;;3.38;3.08;;;;;;;;;;5034356;28;20255;-79
2021/11/27 03:23:37;;;;;;;4.40;3.53;;;;;;;;;;5034714;28;20180;-80
2021/11/27 03:26:03;;;;;;;4.30;3.80;;;;;;;;;;5034499;28;20201;-78
2021/11/27 03:28:29;;;;;;;4.70;3.50;;;;;;;;;;5034570;28;20535;-79
2021/11/27 03:30:55;;;;;;;5.25;4.00;;;;;;;;;;5033003;28;20333;-79
2021/11/27 03:33:21;;;;;;;5.43;3.83;;;;;;;;;;5034547;28;20180;-80
2021/11/27 03:35:47;;;;;;;6.55;4.10;;;;;;;;;;5034466;28;20536;-79
2021/11/27 03:38:13;;;;;;;3.22;2.83;;;;;;;;;;5033214;28;20182;-78
2021/11/27 03:40:40;;;;;;;5.13;3.70;;;;;;;;;;5034005;28;20202;-79
2021/11/27 03:43:06;;;;;;;3.35;2.72;;;;;;;;;;5033180;28;20240;-80
2021/11/27 03:45:32;;;;;;;4.43;3.17;;;;;;;;;;5034298;28;20562;-80
2021/11/27 03:48:01;;;;;;;5.03;3.42;;;;;;;;;;5034285;28;20268;-79
2021/11/27 03:50:31;;;;;;;4.55;3.47;;;;;;;;;;5033180;28;20197;-79
2021/11/27 03:52:57;;;;;;;5.40;2.72;;;;;;;;;;5034211;28;20223;-78
2021/11/27 03:55:23;;;;;;;3.05;2.72;;;;;;;;;;5034142;28;20232;-78
2021/11/27 03:57:50;;;;;;;2.60;2.40;;;;;;;;;;5034076;28;20181;-79
2021/11/27 04:00:16;;;;;;;3.47;2.50;;;;;;;;;;5033828;28;20222;-79
2021/11/27 04:02:42;;;;;;;4.15;2.72;;;;;;;;;;5033916;28;20194;-79
2021/11/27 04:05:08;;;;;;;4.57;2.65;;;;;;;;;;5033949;28;20259;-80
2021/11/27 04:07:34;;;;;;;2.80;2.60;;;;;;;;;;5032617;28;20714;-79
2021/11/27 04:10:00;;;;;;;3.05;2.75;;;;;;;;;;5033521;28;20282;-80
2021/11/27 04:12:26;;;;;;;3.55;3.25;;;;;;;;;;5032727;28;20176;-79
2021/11/27 04:14:52;;;;;;;5.37;3.60;;;;;;;;;;5032642;28;20181;-79
2021/11/27 04:17:18;;;;;;;4.40;4.00;;;;;;;;;;5033595;28;20466;-79
2021/11/27 04:19:44;;;;;;;4.13;3.27;;;;;;;;;;5032097;28;20467;-78
2021/11/27 04:22:10;;;;;;;3.77;3.33;;;;;;;;;;5032602;28;20413;-80
2021/11/27 04:24:38;;;;;;;5.82;3.42;;;;;;;;;;5033452;28;20518;-79
2021/11/27 04:27:05;;;;;;;5.32;3.80;;;;;;;;;;5033719;28;20207;-79
2021/11/27 04:29:31;;;;;;;4.55;4.15;;;;;;;;;;5033457;28;20609;-78
2021/11/27 04:31:57;;;;;;;5.65;4.00;;;;;;;;;;5033509;28;20189;-80
2021/11/27 04:34:23;;;;;;;6.60;4.20;;;;;;;;;;5033387;28;20256;-78
2021/11/27 04:36:49;;;;;;;6.05;4.47;;;;;;;;;;5033335;28;20668;-79
2021/11/27 04:39:15;;;;;;;7.03;3.90;;;;;;;;;;5031823;28;20193;-78
2021/11/27 04:41:41;;;;;;;4.15;3.75;;;;;;;;;;5033306;28;20978;-79
2021/11/27 04:44:07;;;;;;;7.90;4.40;;;;;;;;;;5033391;28;20182;-79
2021/11/27 04:46:33;;;;;;;6.47;4.43;;;;;;;;;;5031874;28;20676;-81
2021/11/27 04:48:59;;;;;;;8.32;3.88;;;;;;;;;;5033098;28;20205;-79
2021/11/27 04:51:25;;;;;;;6.50;4.40;;;;;;;;;;5032891;28;20665;-79
2021/11/27 04:53:51;;;;;;;5.47;4.95;;;;;;;;;;5033216;28;20775;-80
2021/11/27 04:56:17;;;;;;;4.35;3.60;;;;;;;;;;5033115;28;20227;-80
2021/11/27 04:58:44;;;;;;;6.57;4.40;;;;;;;;;;5033128;28;20184;-80
2021/11/27 05:01:10;;;;;;;5.95;4.32;;;;;;;;;;5032628;28;20287;-80
2021/11/27 05:03:36;;;;;;;5.20;4.70;;;;;;;;;;5032250;28;20277;-80
2021/11/27 05:06:02;;;;;;;7.50;4.65;;;;;;;;;;5031825;28;20523;-79
2021/11/27 05:08:28;;;;;;;8.18;4.80;;;;;;;;;;5032951;28;20238;-80
2021/11/27 05:10:54;;;;;;;7.10;4.50;;;;;;;;;;5032477;28;20287;-80
2021/11/27 05:13:20;;;;;;;5.85;4.70;;;;;;;;;;5032928;28;20826;-79
2021/11/27 05:15:46;;;;;;;6.32;5.32;;;;;;;;;;5032929;28;20289;-79
2021/11/27 05:18:12;;;;;;;5.17;4.50;;;;;;;;;;5032843;28;20337;-80
2021/11/27 05:20:38;;;;;;;6.30;5.30;;;;;;;;;;5032400;28;20435;-79
2021/11/27 05:23:06;;;;;;;6.80;5.40;;;;;;;;;;5033015;28;20201;-79
2021/11/27 05:25:32;;;;;;;6.53;5.40;;;;;;;;;;5032777;28;20593;-78
2021/11/27 05:27:58;;;;;;;9.05;6.28;;;;;;;;;;5032912;28;20185;-79
2021/11/27 05:30:27;;;;;;;6.00;4.85;;;;;;;;;;5031358;28;20614;-79
2021/11/27 05:35:25;;;;;;;7.72;5.53;;;;;;;;;;5032959;28;20182;-79
2021/11/27 05:37:51;;;;;;;12.75;5.18;;;;;;;;;;5032851;28;20179;-80
2021/11/27 05:40:17;;;;;;;6.90;5.28;;;;;;;;;;5032528;28;20276;-79
2021/11/27 05:42:43;;;;;;;8.68;5.70;;;;;;;;;;5031611;28;20260;-80
2021/11/27 05:45:10;;;;;;;6.10;4.93;;;;;;;;;;5032530;28;20179;-80
2021/11/27 05:47:36;;;;;;;6.32;5.57;;;;;;;;;;5032601;28;20204;-79
2021/11/27 05:50:03;;;;;;;9.63;5.82;;;;;;;;;;5032295;28;20289;-79
2021/11/27 05:52:29;;;;;;;9.13;5.25;;;;;;;;;;5032722;28;20169;-79
2021/11/27 05:54:55;;;;;;;7.93;5.50;;;;;;;;;;5032652;28;20216;-80
2021/11/27 05:57:21;;;;;;;7.05;5.60;;;;;;;;;;5032411;28;20185;-80
2021/11/27 05:59:47;;;;;;;6.80;5.70;;;;;;;;;;5032221;28;20706;-80
2021/11/27 06:02:14;;;;;;;8.70;5.00;;;;;;;;;;5032529;28;20423;-81
2021/11/27 06:04:40;;;;;;;8.13;5.72;;;;;;;;;;5032565;28;20416;-82
2021/11/27 06:07:06;;;;;;;9.48;5.95;;;;;;;;;;5032788;28;20212;-80
2021/11/27 06:09:32;;;;;;;6.43;5.35;;;;;;;;;;5032094;28;20656;-78
2021/11/27 06:11:58;;;;;;;19.80;6.45;;;;;;;;;;5032619;28;20191;-78
2021/11/27 06:14:24;;;;;;;7.55;6.10;;;;;;;;;;5034361;28;20232;-80
2021/11/27 06:16:50;;;;;;;8.95;7.13;;;;;;;;;;5035980;28;20232;-79
2021/11/27 06:19:16;;;;;;;9.20;7.43;;;;;;;;;;5035750;28;20638;-79
2021/11/27 06:21:42;;;;;;;9.10;7.10;;;;;;;;;;5035880;28;20434;-79
2021/11/27 06:24:08;;;;;;;8.00;6.28;;;;;;;;;;5035948;28;20178;-80
2021/11/27 06:26:34;;;;;;;8.65;6.55;;;;;;;;;;5035765;28;20615;-81
2021/11/27 06:29:00;;;;;;;9.43;6.90;;;;;;;;;;5035899;28;20585;-78
2021/11/27 06:31:26;;;;;;;11.48;7.65;;;;;;;;;;5035323;28;20224;-79
2021/11/27 06:33:52;;;;;;;8.82;6.93;;;;;;;;;;5035821;28;20608;-79
2021/11/27 06:36:18;;;;;;;7.57;6.20;;;;;;;;;;5035745;28;20189;-79
2021/11/27 06:38:44;;;;;;;7.80;6.63;;;;;;;;;;5035685;28;20188;-79
2021/11/27 06:41:10;;;;;;;9.60;7.10;;;;;;;;;;5035217;28;20197;-79
2021/11/27 06:43:36;;;;;;;11.02;7.32;;;;;;;;;;5035548;28;20494;-80
2021/11/27 06:46:02;;;;;;;8.13;6.32;;;;;;;;;;5035422;28;20231;-79
2021/11/27 06:48:29;;;;;;;10.43;7.28;;;;;;;;;;5035453;28;20173;-79
2021/11/27 06:50:55;;;;;;;9.32;7.70;;;;;;;;;;5035062;28;20203;-78
2021/11/27 06:53:21;;;;;;;9.52;7.15;;;;;;;;;;5035427;28;20184;-78
2021/11/27 06:55:47;;;;;;;13.55;7.18;;;;;;;;;;5035111;28;20182;-80
2021/11/27 06:58:13;;;;;;;10.98;7.43;;;;;;;;;;5035149;28;20242;-79
2021/11/27 07:00:39;;;;;;;12.80;7.85;;;;;;;;;;5034753;28;20211;-80
2021/11/27 07:03:05;;;;;;;13.68;7.70;;;;;;;;;;5035224;28;20177;-79
2021/11/27 07:05:31;;;;;;;10.77;7.80;;;;;;;;;;5035129;28;20274;-79
2021/11/27 07:07:57;;;;;;;11.00;8.57;;;;;;;;;;5035047;28;20169;-79
2021/11/27 07:10:23;;;;;;;12.68;8.27;;;;;;;;;;5034697;28;20628;-80
2021/11/27 07:12:49;;;;;;;10.80;7.50;;;;;;;;;;5034966;28;20232;-80
2021/11/27 07:15:15;;;;;;;13.02;7.97;;;;;;;;;;5035080;28;20596;-79
2021/11/27 07:17:41;;;;;;;9.05;7.10;;;;;;;;;;5034769;28;20624;-80
2021/11/27 07:20:08;;;;;;;10.07;7.55;;;;;;;;;;5034153;28;20566;-80
2021/11/27 07:22:34;;;;;;;11.00;8.07;;;;;;;;;;5034857;28;20178;-79
2021/11/27 07:25:00;;;;;;;12.32;8.95;;;;;;;;;;5033952;28;20229;-79
2021/11/27 07:27:26;;;;;;;15.98;8.82;;;;;;;;;;5034472;28;20196;-81
2021/11/27 07:29:52;;;;;;;10.82;7.97;;;;;;;;;;5016690;28;20194;-80
2021/11/27 07:32:18;;;;;;;11.00;8.52;;;;;;;;;;5034453;28;20218;-79
2021/11/27 07:34:44;;;;;;;45.60;29.38;;;;;;;;;;5033545;28;20225;-81
2021/11/27 07:37:10;;;;;;;30.70;19.48;;;;;;;;;;5034429;28;20191;-80
2021/11/27 07:39:38;;;;;;;16.48;13.00;;;;;;;;;;5034029;28;20178;-79
2021/11/27 07:42:04;;;;;;;17.63;11.48;;;;;;;;;;5033002;28;20221;-80
2021/11/27 07:44:30;;;;;;;14.45;9.95;;;;;;;;;;5034322;28;20225;-80
2021/11/27 07:46:57;;;;;;;11.95;9.68;;;;;;;;;;5034381;28;20214;-80
2021/11/27 07:49:24;;;;;;;13.27;9.50;;;;;;;;;;5033903;28;20587;-79
2021/11/27 07:51:50;;;;;;;14.77;9.27;;;;;;;;;;5034165;28;20232;-80
2021/11/27 07:54:16;;;;;;;11.98;9.20;;;;;;;;;;5034048;28;20205;-80
2021/11/27 07:56:42;;;;;;;11.48;8.60;;;;;;;;;;5034076;28;20190;-78
2021/11/27 07:59:08;;;;;;;10.38;7.57;;;;;;;;;;5034004;28;20179;-80
2021/11/27 08:01:34;;;;;;;16.48;10.38;;;;;;;;;;5033657;28;20221;-78
2021/11/27 08:04:04;;;;;;;12.93;9.30;;;;;;;;;;5032721;28;20213;-79
2021/11/27 08:06:30;;;;;;;14.00;8.75;;;;;;;;;;5033737;28;20622;-79
2021/11/27 08:08:56;;;;;;;14.35;8.75;;;;;;;;;;5033742;28;20197;-81
2021/11/27 08:11:25;;;;;;;12.25;8.55;;;;;;;;;;5033406;28;20827;-79
2021/11/27 08:13:51;;;;;;;14.25;9.25;;;;;;;;;;5033778;28;20171;-79
2021/11/27 08:16:18;;;;;;;13.65;9.10;;;;;;;;;;5033851;28;20539;-79
2021/11/27 08:18:44;;;;;;;14.93;9.05;;;;;;;;;;5033799;28;20195;-78
2021/11/27 08:21:10;;;;;;;14.27;9.20;;;;;;;;;;5033285;28;20302;-80
2021/11/27 08:23:37;;;;;;;12.48;9.05;;;;;;;;;;5033700;28;20179;-79
2021/11/27 08:26:06;;;;;;;14.20;10.65;;;;;;;;;;5033588;28;20205;-80
2021/11/27 08:28:32;;;;;;;14.25;9.25;;;;;;;;;;5033749;28;20690;-80
2021/11/27 08:30:58;;;;;;;12.13;8.35;;;;;;;;;;5033219;28;20666;-80
2021/11/27 08:33:24;;;;;;;12.38;8.60;;;;;;;;;;5033506;28;20206;-80
2021/11/27 08:35:50;;;;;;;14.13;10.02;;;;;;;;;;5033517;28;20249;-80
2021/11/27 08:38:16;;;;;;;12.32;8.70;;;;;;;;;;5033215;28;20641;-80
2021/11/27 08:40:43;;;;;;;13.02;9.25;;;;;;;;;;5033023;28;20199;-78
2021/11/27 08:43:10;;;;;;;14.10;9.15;;;;;;;;;;5033272;28;20705;-80
2021/11/27 08:45:39;;;;;;;14.43;9.05;;;;;;;;;;5033308;28;20715;-81
2021/11/27 08:48:05;;;;;;;18.67;9.90;;;;;;;;;;5033322;28;20175;-77
2021/11/27 08:50:31;;;;;;;17.33;9.48;;;;;;;;;;5032838;28;20258;-80
2021/11/27 08:52:57;;;;;;;17.35;10.55;;;;;;;;;;5033163;28;20167;-80
2021/11/27 08:55:23;;;;;;;14.30;10.13;;;;;;;;;;5033110;28;20168;-78
2021/11/27 08:57:49;;;;;;;16.08;8.93;;;;;;;;;;5033180;28;20247;-80
2021/11/27 09:00:16;;;;;;;13.15;9.52;;;;;;;;;;5032915;28;20193;-79
2021/11/27 09:02:42;;;;;;;12.68;9.25;;;;;;;;;;5031646;28;20263;-80
2021/11/27 09:05:08;;;;;;;13.90;9.18;;;;;;;;;;5032991;28;20658;-79
2021/11/27 09:07:34;;;;;;;17.13;8.82;;;;;;;;;;5031975;28;20220;-80
2021/11/27 09:10:01;;;;;;;12.80;8.30;;;;;;;;;;5032695;28;20239;-78
2021/11/27 09:12:27;;;;;;;12.48;9.07;;;;;;;;;;5033143;28;20176;-79
2021/11/27 09:14:55;;;;;;;11.10;7.27;;;;;;;;;;5033175;28;20543;-80
2021/11/27 09:17:21;;;;;;;24.45;8.43;;;;;;;;;;5033083;28;20527;-79
2021/11/27 09:19:47;;;;;;;13.73;7.32;;;;;;;;;;5032701;28;20206;-78
2021/11/27 09:22:13;;;;;;;9.00;7.15;;;;;;;;;;5032985;28;20472;-78
2021/11/27 09:24:39;;;;;;;9.60;7.70;;;;;;;;;;5032865;28;20537;-80
2021/11/27 09:27:06;;;;;;;11.65;7.00;;;;;;;;;;5039865;28;20270;-78
2021/11/27 09:29:33;;;;;;;10.70;6.78;;;;;;;;;;5032662;28;20208;-79
2021/11/27 09:31:59;;;;;;;7.22;6.00;;;;;;;;;;5031545;28;20210;-79
2021/11/27 09:34:25;;;;;;;13.05;6.68;;;;;;;;;;5032876;28;20177;-78
2021/11/27 09:36:51;;;;;;;5.75;5.25;;;;;;;;;;5031771;28;20189;-81
2021/11/27 09:39:18;;;;;;;7.43;5.70;;;;;;;;;;5032554;28;20181;-79
2021/11/27 09:41:45;;;;;;;6.15;5.28;;;;;;;;;;5032699;28;20290;-79
2021/11/27 09:44:12;;;;;;;7.47;5.88;;;;;;;;;;5031455;28;20225;-79
2021/11/27 09:46:40;;;;;;;14.23;5.45;;;;;;;;;;5032634;28;20208;-81
2021/11/27 09:49:07;;;;;;;5.80;5.25;;;;;;;;;;5032783;28;20178;-80
2021/11/27 09:51:34;;;;;;;5.65;4.55;;;;;;;;;;5035067;28;20222;-79
2021/11/27 09:54:02;;;;;;;7.78;5.35;;;;;;;;;;5035306;28;20228;-79
2021/11/27 09:56:29;;;;;;;4.88;4.28;;;;;;;;;;5036454;28;20170;-80
2021/11/27 09:58:55;;;;;;;7.47;4.43;;;;;;;;;;5036373;28;20178;-78
2021/11/27 10:01:24;;;;;;;6.03;5.15;;;;;;;;;;5034592;28;20198;-78
2021/11/27 10:04:00;;;;;;;7.10;4.60;;;;;;;;;;5036237;28;20189;-77
2021/11/27 10:06:28;;;;;;;8.65;5.03;;;;;;;;;;5036262;28;20188;-77
2021/11/27 10:08:54;;;;;;;7.38;4.90;;;;;;;;;;5036234;28;20190;-79
2021/11/27 10:11:20;;;;;;;9.35;4.15;;;;;;;;;;5034485;28;20200;-79
2021/11/27 10:13:46;;;;;;;5.05;4.30;;;;;;;;;;5035990;28;20178;-80
2021/11/27 10:16:12;;;;;;;10.20;3.97;;;;;;;;;;5036272;28;20182;-80
2021/11/27 10:18:38;;;;;;;3.95;3.50;;;;;;;;;;5035010;28;20436;-81
2021/11/27 10:21:21;;;;;;;8.33;4.30;;;;;;;;;;5035922;28;20205;-79
2021/11/27 10:23:48;;;;;;;5.90;4.10;;;;;;;;;;5036256;28;20499;-79
2021/11/27 10:26:38;;;;;;;7.78;3.67;;;;;;;;;;5035982;28;20221;-81
2021/11/27 10:29:29;;;;;;;7.32;3.35;;;;;;;;;;5029422;28;20193;-80
2021/11/27 10:32:15;;;;;;;3.65;3.13;;;;;;;;;;5036010;28;20196;-78
2021/11/27 10:34:47;;;;;;;7.60;3.15;;;;;;;;;;5035818;28;20333;-78
2021/11/27 10:37:25;;;;;;;4.55;3.10;;;;;;;;;;5035779;28;20537;-78
2021/11/27 10:40:02;;;;;;;6.57;2.65;;;;;;;;;;5035437;28;20185;-78
2021/11/27 10:42:28;;;;;;;4.50;2.45;;;;;;;;;;5034428;28;20700;-80
2021/11/27 10:44:55;;;;;;;5.30;3.05;;;;;;;;;;5035510;28;20876;-78
2021/11/27 10:47:21;;;;;;;5.18;3.55;;;;;;;;;;5035429;28;20206;-80
2021/11/27 10:49:48;;;;;;;6.07;3.00;;;;;;;;;;5035005;28;20212;-79
2021/11/27 10:52:15;;;;;;;2.90;2.60;;;;;;;;;;5035674;28;20512;-79
2021/11/27 10:54:49;;;;;;;3.85;2.30;;;;;;;;;;5035383;28;20174;-81
2021/11/27 10:57:38;;;;;;;4.63;2.60;;;;;;;;;;5035129;28;20172;-80
2021/11/27 11:00:10;;;;;;;9.50;2.97;;;;;;;;;;5032098;28;20249;-79
2021/11/27 11:02:37;;;;;;;5.15;2.60;;;;;;;;;;5035118;28;20175;-79
2021/11/27 11:05:03;;;;;;;6.28;2.70;;;;;;;;;;5037655;28;20234;-79
2021/11/27 11:07:30;;;;;;;6.80;3.30;;;;;;;;;;5034901;28;20206;-78
2021/11/27 11:10:07;;;;;;;6.22;2.65;;;;;;;;;;5034545;28;20409;-79
2021/11/27 11:12:33;;;;;;;3.78;1.90;;;;;;;;;;5035038;28;20173;-79
2021/11/27 11:15:09;;;;;;;11.27;3.30;;;;;;;;;;5035126;28;20254;-78
2021/11/27 11:17:35;;;;;;;5.70;2.10;;;;;;;;;;5034632;28;20193;-78
2021/11/27 11:20:15;;;;;;;5.80;2.73;;;;;;;;;;5016704;28;20728;-79
2021/11/27 11:22:42;;;;;;;4.85;2.78;;;;;;;;;;5034711;28;20419;-78
2021/11/27 11:25:08;;;;;;;8.48;3.15;;;;;;;;;;5034710;28;20261;-80
2021/11/27 11:27:35;;;;;;;9.10;2.60;;;;;;;;;;5034505;28;20212;-78
2021/11/27 11:30:03;;;;;;;8.25;2.17;;;;;;;;;;5034141;28;20190;-78
2021/11/27 11:32:29;;;;;;;6.60;2.78;;;;;;;;;;5034778;28;20170;-79
2021/11/27 11:34:57;;;;;;;4.28;2.42;;;;;;;;;;5034749;28;20228;-79
2021/11/27 11:37:23;;;;;;;6.60;2.25;;;;;;;;;;5034821;28;20178;-80
2021/11/27 11:39:50;;;;;;;8.93;2.15;;;;;;;;;;5032896;28;20719;-81
2021/11/27 11:42:16;;;;;;;3.25;1.85;;;;;;;;;;5034935;28;20197;-82
2021/11/27 11:44:42;;;;;;;10.55;2.47;;;;;;;;;;5034479;28;20222;-81
2021/11/27 11:47:09;;;;;;;4.60;1.73;;;;;;;;;;5034310;28;20202;-80
2021/11/27 11:49:36;;;;;;;13.35;2.50;;;;;;;;;;5032729;28;20424;-80
2021/11/27 11:52:31;;;;;;;8.63;2.95;;;;;;;;;;5034113;28;20215;-80
2021/11/27 11:55:01;;;;;;;5.20;1.52;;;;;;;;;;5015068;28;20226;-80
2021/11/27 11:57:46;;;;;;;5.25;1.83;;;;;;;;;;5034245;28;20174;-79
2021/11/27 12:00:27;;;;;;;4.72;1.80;;;;;;;;;;5032276;28;20213;-80
2021/11/27 12:03:02;;;;;;;5.18;1.60;;;;;;;;;;5034015;28;20174;-78
2021/11/27 12:05:29;;;;;;;9.30;2.47;;;;;;;;;;5032740;28;20553;-79
2021/11/27 12:07:57;;;;;;;7.03;1.90;;;;;;;;;;5034014;28;20627;-78
2021/11/27 12:10:25;;;;;;;8.15;3.17;;;;;;;;;;5033411;28;20194;-81
2021/11/27 12:13:06;;;;;;;9.70;2.55;;;;;;;;;;5033464;28;20167;-79
2021/11/27 12:15:33;;;;;;;8.60;2.28;;;;;;;;;;5034153;28;20174;-79
2021/11/27 12:18:02;;;;;;;7.43;2.20;;;;;;;;;;5033562;28;20190;-80
2021/11/27 12:20:43;;;;;;;15.23;3.00;;;;;;;;;;5033302;28;20221;-78
2021/11/27 12:26:10;;;;;;;3.85;1.65;;;;;;;;;;5033890;28;20693;-79
2021/11/27 12:28:36;;;;;;;5.72;1.90;;;;;;;;;;5033719;28;20178;-81
2021/11/27 12:31:08;;;;;;;5.32;1.70;;;;;;;;;;5033167;28;20197;-78
2021/11/27 12:33:40;;;;;;;8.90;2.22;;;;;;;;;;5033651;28;20509;-78
2021/11/27 12:36:06;;;;;;;10.80;2.15;;;;;;;;;;5033547;28;20177;-81
2021/11/27 12:38:33;;;;;;;5.40;2.00;;;;;;;;;;5032120;28;20182;-80
2021/11/27 12:40:59;;;;;;;6.30;2.28;;;;;;;;;;5033090;28;20290;-81
2021/11/27 12:43:26;;;;;;;10.40;2.67;;;;;;;;;;5033446;28;20197;-79
2021/11/27 12:45:54;;;;;;;2.95;1.20;;;;;;;;;;5033262;28;20683;-81
2021/11/27 12:48:29;;;;;;;5.43;2.15;;;;;;;;;;5032071;28;20174;-79
2021/11/27 12:51:14;;;;;;;3.47;1.88;;;;;;;;;;5032917;28;20193;-79
2021/11/27 12:53:40;;;;;;;11.32;2.80;;;;;;;;;;5033301;28;20174;-80
2021/11/27 12:56:05;;;;;;;5.55;1.85;;;;;;;;;;5032104;28;20252;-81
2021/11/27 12:58:32;;;;;;;7.67;2.03;;;;;;;;;;5033002;28;20178;-79
2021/11/27 13:00:58;;;;;;;5.60;2.15;;;;;;;;;;5032778;28;20433;-78
2021/11/27 13:03:24;;;;;;;7.57;2.58;;;;;;;;;;5033276;28;20300;-78
2021/11/27 13:05:51;;;;;;;5.82;2.00;;;;;;;;;;5033036;28;20198;-79
2021/11/27 13:08:25;;;;;;;3.80;2.42;;;;;;;;;;5033141;28;20178;-78
2021/11/27 13:10:53;;;;;;;8.13;2.78;;;;;;;;;;5032624;28;20271;-79
2021/11/27 13:13:27;;;;;;;6.47;2.15;;;;;;;;;;5033065;28;20168;-82
2021/11/27 13:15:54;;;;;;;5.45;1.77;;;;;;;;;;5033012;28;20272;-78
2021/11/27 13:18:21;;;;;;;7.32;2.35;;;;;;;;;;5033200;28;20192;-81
2021/11/27 13:20:49;;;;;;;3.45;1.90;;;;;;;;;;5032384;28;20567;-79
2021/11/27 13:23:17;;;;;;;3.03;1.70;;;;;;;;;;5032061;28;20185;-79
2021/11/27 13:25:45;;;;;;;6.40;1.92;;;;;;;;;;5036889;28;20201;-78
2021/11/27 13:28:26;;;;;;;10.40;2.10;;;;;;;;;;5037348;28;20170;-78
2021/11/27 13:30:53;;;;;;;7.43;2.47;;;;;;;;;;5035316;28;20190;-80
2021/11/27 13:33:21;;;;;;;8.77;1.83;;;;;;;;;;5036972;28;20576;-79
2021/11/27 13:35:47;;;;;;;8.63;2.30;;;;;;;;;;5036981;28;20181;-81
2021/11/27 13:38:13;;;;;;;4.97;2.50;;;;;;;;;;5036933;28;20181;-81
2021/11/27 13:40:40;;;;;;;9.25;2.20;;;;;;;;;;5036456;28;20190;-78
2021/11/27 13:43:11;;;;;;;7.78;2.40;;;;;;;;;;5036938;28;20166;-79
2021/11/27 13:45:37;;;;;;;4.95;1.92;;;;;;;;;;5036631;28;20202;-80
2021/11/27 13:48:06;;;;;;;5.95;1.75;;;;;;;;;;5035514;28;20174;-81
2021/11/27 13:50:32;;;;;;;5.88;1.90;;;;;;;;;;5036266;28;20197;-80
2021/11/27 13:52:58;;;;;;;7.90;2.00;;;;;;;;;;5036434;28;20182;-79
2021/11/27 13:55:29;;;;;;;6.13;1.80;;;;;;;;;;5035267;28;20205;-80
2021/11/27 13:57:57;;;;;;;4.55;2.03;;;;;;;;;;5036506;28;20235;-80
2021/11/27 14:00:27;;;;;;;4.50;2.33;;;;;;;;;;5036097;28;20194;-81
2021/11/27 14:02:57;;;;;;;6.72;2.15;;;;;;;;;;5036431;28;20174;-81
2021/11/27 14:05:31;;;;;;;7.43;2.15;;;;;;;;;;5035045;28;20188;-78
2021/11/27 14:07:57;;;;;;;6.50;1.73;;;;;;;;;;5036246;28;20241;-78
2021/11/27 14:10:24;;;;;;;5.45;1.63;;;;;;;;;;5035837;28;20221;-76
2021/11/27 14:12:52;;;;;;;5.15;1.80;;;;;;;;;;5036123;28;20186;-77
2021/11/27 14:15:18;;;;;;;4.05;1.98;;;;;;;;;;5035924;28;20249;-81
2021/11/27 14:18:03;;;;;;;6.27;1.83;;;;;;;;;;5035321;28;20301;-78
2021/11/27 14:20:42;;;;;;;6.63;1.75;;;;;;;;;;5034581;28;20424;-79
2021/11/27 14:23:10;;;;;;;6.45;1.70;;;;;;;;;;5034669;28;20170;-80
2021/11/27 14:25:38;;;;;;;7.05;1.80;;;;;;;;;;5034501;28;20188;-78
2021/11/27 14:28:09;;;;;;;5.32;2.13;;;;;;;;;;5034718;28;20241;-78
2021/11/27 14:30:37;;;;;;;8.10;2.15;;;;;;;;;;5034401;28;20265;-81
2021/11/27 14:33:15;;;;;;;3.33;1.90;;;;;;;;;;5034714;28;20197;-79
2021/11/27 14:35:42;;;;;;;3.85;2.25;;;;;;;;;;5034159;28;20260;-80
2021/11/27 14:38:08;;;;;;;4.53;1.90;;;;;;;;;;5034820;28;20585;-80
2021/11/27 14:40:54;;;;;;;5.97;2.20;;;;;;;;;;5036691;28;20186;-78
2021/11/27 14:43:20;;;;;;;5.65;1.98;;;;;;;;;;5033467;28;20184;-81
2021/11/27 14:45:47;;;;;;;4.53;1.90;;;;;;;;;;5036453;28;20634;-81
2021/11/27 14:48:30;;;;;;;3.47;1.85;;;;;;;;;;5033858;28;20170;-82